This is the latest recevied weather packets stored in our database for station/object KI4HRG. If no packets are shown the sender has not sent any weather packets the latest 10 day(s).
| Time | Temp. | Humidity | Pressure | Rain* | Wind** | Luminosity | Snow |
|---|---|---|---|---|---|---|---|
| 1777987560 | 18.33° C | 75% | 1014.8 hPa | 0 mm | - | 273 W/m² | - |
| 1777987258 | 18.33° C | 74% | 1015.1 hPa | 0 mm | - | 365 W/m² | - |
| 1777986954 | 17.78° C | 75% | 1015 hPa | 0 mm | - | 328 W/m² | - |
| 1777986653 | 17.78° C | 75% | 1014.8 hPa | 0 mm | - | 277 W/m² | - |
| 1777986350 | 17.78° C | 77% | 1014.7 hPa | 0 mm | - | 254 W/m² | - |
| 1777986048 | 17.78° C | 76% | 1014.6 hPa | 0 mm | - | 254 W/m² | - |
| 1777985744 | 17.22° C | 77% | 1014.7 hPa | 0 mm | - | 229 W/m² | - |
| 1777985441 | 17.22° C | 77% | 1014.6 hPa | 0 mm | - | 223 W/m² | - |
| 1777985138 | 17.78° C | 76% | 1014.4 hPa | 0 mm | - | 216 W/m² | - |
| 1777984834 | 17.22° C | 77% | 1014.2 hPa | 0 mm | - | 181 W/m² | - |
| 1777984531 | 17.22° C | 78% | 1014.1 hPa | 0 mm | - | 163 W/m² | - |
| 1777984227 | 17.22° C | 77% | 1014.2 hPa | 0 mm | - | 152 W/m² | - |
| 1777983924 | 16.67° C | 79% | 1014.1 hPa | 0 mm | - | 142 W/m² | - |
| 1777983621 | 16.67° C | 78% | 1013.9 hPa | 0 mm | - | 124 W/m² | - |
| 1777983317 | 16.11° C | 83% | 1013.9 hPa | 0 mm | - | 115 W/m² | - |
| 1777983014 | 15.56° C | 83% | 1013.9 hPa | 0 mm | - | 75 W/m² | - |
| 1777982711 | 15.56° C | 86% | 1013.9 hPa | 0 mm | - | 60 W/m² | - |
| 1777982406 | 14.44° C | 92% | 1013.9 hPa | 0 mm | - | 49 W/m² | - |
| 1777982101 | 13.33° C | 95% | 1013.7 hPa | 0 mm | - | 44 W/m² | - |
| 1777981799 | 12.78° C | 98% | 1013.7 hPa | 0 mm | - | 39 W/m² | - |
| 1777981495 | 11.67° C | 99% | 1013.7 hPa | 0 mm | - | 36 W/m² | - |
| 1777981192 | 11.11° C | 99% | 1013.9 hPa | 0 mm | - | 26 W/m² | - |
| 1777980888 | 11.11° C | 99% | 1013.7 hPa | 0 mm | - | 23 W/m² | - |
| 1777980584 | 11.11° C | 99% | 1013.7 hPa | 0 mm | - | 18 W/m² | - |
| 1777980282 | 10.56° C | 99% | 1013.5 hPa | 0 mm | - | 14 W/m² | - |
* Rain latest hour (hover to see other rain measurements)
** Current wind speed in m/s (hover to see current wind gust speed)